sensor_id;sensor_type;location;lat;lon;timestamp;pressure;altitude;pressure_sealevel;temperature;humidity
71915;BME280;60387;49.994;14.660;2023-03-13T00:00:37;97167.97;;;11.69;54.73
71915;BME280;60387;49.994;14.660;2023-03-13T00:03:11;97178.47;;;11.71;54.67
71915;BME280;60387;49.994;14.660;2023-03-13T00:05:44;97177.38;;;11.72;54.84
71915;BME280;60387;49.994;14.660;2023-03-13T00:08:18;97183.75;;;11.76;55.21
71915;BME280;60387;49.994;14.660;2023-03-13T00:10:51;97172.06;;;11.75;54.87
71915;BME280;60387;49.994;14.660;2023-03-13T00:13:24;97175.75;;;11.71;54.66
71915;BME280;60387;49.994;14.660;2023-03-13T00:15:59;97189.97;;;11.76;53.99
71915;BME280;60387;49.994;14.660;2023-03-13T00:18:33;97188.50;;;11.79;54.99
71915;BME280;60387;49.994;14.660;2023-03-13T00:21:07;97183.91;;;11.79;54.44
71915;BME280;60387;49.994;14.660;2023-03-13T00:23:41;97174.94;;;11.79;54.02
71915;BME280;60387;49.994;14.660;2023-03-13T00:26:19;97184.38;;;11.81;53.96
71915;BME280;60387;49.994;14.660;2023-03-13T00:28:53;97188.69;;;11.82;54.44
71915;BME280;60387;49.994;14.660;2023-03-13T00:31:31;97191.38;;;11.82;54.21
71915;BME280;60387;49.994;14.660;2023-03-13T00:34:04;97187.91;;;11.82;54.37
71915;BME280;60387;49.994;14.660;2023-03-13T00:36:37;97190.09;;;11.80;54.32
71915;BME280;60387;49.994;14.660;2023-03-13T00:39:11;97188.50;;;11.79;54.65
71915;BME280;60387;49.994;14.660;2023-03-13T00:41:44;97169.72;;;11.74;54.23
71915;BME280;60387;49.994;14.660;2023-03-13T00:44:17;97173.19;;;11.74;54.43
71915;BME280;60387;49.994;14.660;2023-03-13T00:46:51;97173.38;;;11.69;54.20
71915;BME280;60387;49.994;14.660;2023-03-13T00:49:24;97174.00;;;11.66;54.61
71915;BME280;60387;49.994;14.660;2023-03-13T00:51:57;97173.06;;;11.62;54.46
71915;BME280;60387;49.994;14.660;2023-03-13T00:54:31;97167.50;;;11.59;54.77
71915;BME280;60387;49.994;14.660;2023-03-13T00:57:04;97169.38;;;11.58;54.53
71915;BME280;60387;49.994;14.660;2023-03-13T00:59:37;97173.72;;;11.59;54.68
71915;BME280;60387;49.994;14.660;2023-03-13T01:02:11;97158.84;;;11.57;54.07
71915;BME280;60387;49.994;14.660;2023-03-13T01:04:44;97164.47;;;11.60;54.63
71915;BME280;60387;49.994;14.660;2023-03-13T01:07:17;97165.25;;;11.61;54.04
71915;BME280;60387;49.994;14.660;2023-03-13T01:09:50;97171.63;;;11.65;54.40
71915;BME280;60387;49.994;14.660;2023-03-13T01:12:24;97169.69;;;11.65;54.39
71915;BME280;60387;49.994;14.660;2023-03-13T01:14:57;97179.59;;;11.70;54.21
71915;BME280;60387;49.994;14.660;2023-03-13T01:17:30;97179.28;;;11.71;54.67
71915;BME280;60387;49.994;14.660;2023-03-13T01:20:04;97178.97;;;11.73;53.99
71915;BME280;60387;49.994;14.660;2023-03-13T01:22:38;97180.22;;;11.75;54.02
71915;BME280;60387;49.994;14.660;2023-03-13T01:25:11;97183.75;;;11.76;54.01
71915;BME280;60387;49.994;14.660;2023-03-13T01:27:45;97174.16;;;11.78;54.46
71915;BME280;60387;49.994;14.660;2023-03-13T01:30:18;97180.53;;;11.82;53.64
71915;BME280;60387;49.994;14.660;2023-03-13T01:32:51;97177.50;;;11.84;53.79
71915;BME280;60387;49.994;14.660;2023-03-13T01:35:24;97172.69;;;11.89;53.44
71915;BME280;60387;49.994;14.660;2023-03-13T01:37:58;97155.63;;;11.89;53.97
71915;BME280;60387;49.994;14.660;2023-03-13T01:40:38;97170.16;;;11.93;53.92
71915;BME280;60387;49.994;14.660;2023-03-13T01:43:21;97176.50;;;11.97;53.84
71915;BME280;60387;49.994;14.660;2023-03-13T01:51:41;97159.91;;;11.98;53.40
71915;BME280;60387;49.994;14.660;2023-03-13T01:54:25;97158.63;;;11.96;53.48
71915;BME280;60387;49.994;14.660;2023-03-13T01:57:12;97156.72;;;11.96;53.53
71915;BME280;60387;49.994;14.660;2023-03-13T01:59:57;97150.03;;;11.94;53.88
71915;BME280;60387;49.994;14.660;2023-03-13T02:02:33;97146.38;;;11.90;53.97
71915;BME280;60387;49.994;14.660;2023-03-13T02:05:07;97139.06;;;11.82;54.56
71915;BME280;60387;49.994;14.660;2023-03-13T02:07:48;97142.38;;;11.79;54.96
71915;BME280;60387;49.994;14.660;2023-03-13T02:10:24;97130.75;;;11.70;54.66
71915;BME280;60387;49.994;14.660;2023-03-13T02:13:00;97129.00;;;11.65;54.56
71915;BME280;60387;49.994;14.660;2023-03-13T02:15:34;97134.28;;;11.62;54.13
71915;BME280;60387;49.994;14.660;2023-03-13T02:18:08;97128.19;;;11.56;54.03
71915;BME280;60387;49.994;14.660;2023-03-13T02:20:42;97133.47;;;11.53;54.14
71915;BME280;60387;49.994;14.660;2023-03-13T02:23:34;97139.22;;;11.51;53.66
71915;BME280;60387;49.994;14.660;2023-03-13T02:26:08;97134.44;;;11.48;54.75
71915;BME280;60387;49.994;14.660;2023-03-13T02:28:41;97140.19;;;11.47;54.26
71915;BME280;60387;49.994;14.660;2023-03-13T02:31:18;97133.97;;;11.46;54.42
71915;BME280;60387;49.994;14.660;2023-03-13T02:33:52;97137.78;;;11.45;54.00
71915;BME280;60387;49.994;14.660;2023-03-13T02:36:28;97133.97;;;11.46;54.15
71915;BME280;60387;49.994;14.660;2023-03-13T02:39:04;97135.56;;;11.47;54.10
71915;BME280;60387;49.994;14.660;2023-03-13T02:41:41;97136.66;;;11.46;54.53
71915;BME280;60387;49.994;14.660;2023-03-13T02:44:14;97139.84;;;11.48;53.99
71915;BME280;60387;49.994;14.660;2023-03-13T02:46:49;97142.72;;;11.52;54.52
71915;BME280;60387;49.994;14.660;2023-03-13T02:49:27;97148.63;;;11.54;53.73
71915;BME280;60387;49.994;14.660;2023-03-13T02:52:11;97137.00;;;11.53;54.11
71915;BME280;60387;49.994;14.660;2023-03-13T02:54:46;97135.56;;;11.56;54.55
71915;BME280;60387;49.994;14.660;2023-03-13T02:57:22;97138.78;;;11.58;53.97
71915;BME280;60387;49.994;14.660;2023-03-13T02:59:55;97129.00;;;11.57;54.12
71915;BME280;60387;49.994;14.660;2023-03-13T03:02:28;97123.13;;;11.55;55.58
71915;BME280;60387;49.994;14.660;2023-03-13T03:05:02;97129.31;;;11.55;55.06
71915;BME280;60387;49.994;14.660;2023-03-13T03:07:35;97129.00;;;11.57;55.07
71915;BME280;60387;49.994;14.660;2023-03-13T03:10:09;97131.09;;;11.60;55.00
71915;BME280;60387;49.994;14.660;2023-03-13T03:12:42;97128.84;;;11.62;55.23
71915;BME280;60387;49.994;14.660;2023-03-13T03:15:15;97125.84;;;11.63;55.08
71915;BME280;60387;49.994;14.660;2023-03-13T03:17:49;97129.00;;;11.65;55.34
71915;BME280;60387;49.994;14.660;2023-03-13T03:20:22;97122.31;;;11.63;55.27
71915;BME280;60387;49.994;14.660;2023-03-13T03:22:55;97116.41;;;11.61;55.22
71915;BME280;60387;49.994;14.660;2023-03-13T03:25:29;97109.72;;;11.67;55.57
71915;BME280;60387;49.994;14.660;2023-03-13T03:28:02;97116.72;;;11.68;55.73
71915;BME280;60387;49.994;14.660;2023-03-13T03:30:35;97114.47;;;11.70;55.16
71915;BME280;60387;49.994;14.660;2023-03-13T03:33:09;97099.63;;;11.67;54.63
71915;BME280;60387;49.994;14.660;2023-03-13T03:35:42;97106.03;;;11.71;55.36
71915;BME280;60387;49.994;14.660;2023-03-13T03:38:15;97111.59;;;11.75;54.49
71915;BME280;60387;49.994;14.660;2023-03-13T03:40:49;97107.78;;;11.76;54.72
71915;BME280;60387;49.994;14.660;2023-03-13T03:43:22;97094.88;;;11.73;54.53
71915;BME280;60387;49.994;14.660;2023-03-13T03:45:55;97103.78;;;11.82;55.41
71915;BME280;60387;49.994;14.660;2023-03-13T03:48:29;97096.75;;;11.81;54.89
71915;BME280;60387;49.994;14.660;2023-03-13T03:51:03;97105.03;;;11.84;55.13
71915;BME280;60387;49.994;14.660;2023-03-13T03:53:36;97095.28;;;11.83;55.27
71915;BME280;60387;49.994;14.660;2023-03-13T03:56:10;97088.75;;;11.84;55.55
71915;BME280;60387;49.994;14.660;2023-03-13T03:58:43;97096.41;;;11.82;55.35
71915;BME280;60387;49.994;14.660;2023-03-13T04:01:16;97096.09;;;11.84;55.04
71915;BME280;60387;49.994;14.660;2023-03-13T04:03:50;97089.53;;;11.85;55.27
71915;BME280;60387;49.994;14.660;2023-03-13T04:06:23;97086.69;;;11.81;54.83
71915;BME280;60387;49.994;14.660;2023-03-13T04:08:56;97083.31;;;11.84;54.75
71915;BME280;60387;49.994;14.660;2023-03-13T04:11:30;97085.88;;;11.89;54.53
71915;BME280;60387;49.994;14.660;2023-03-13T04:14:03;97078.03;;;11.88;54.50
71915;BME280;60387;49.994;14.660;2023-03-13T04:16:36;97085.53;;;11.91;54.90
71915;BME280;60387;49.994;14.660;2023-03-13T04:19:10;97088.72;;;11.93;54.87
71915;BME280;60387;49.994;14.660;2023-03-13T04:21:43;97074.50;;;11.96;54.57
71915;BME280;60387;49.994;14.660;2023-03-13T04:24:16;97070.34;;;11.98;54.45
71915;BME280;60387;49.994;14.660;2023-03-13T04:26:49;97067.31;;;12.00;54.62
71915;BME280;60387;49.994;14.660;2023-03-13T04:29:23;97070.03;;;12.00;54.57
71915;BME280;60387;49.994;14.660;2023-03-13T04:31:56;97063.47;;;12.01;54.60
71915;BME280;60387;49.994;14.660;2023-03-13T04:34:30;97062.34;;;12.02;54.46
71915;BME280;60387;49.994;14.660;2023-03-13T04:37:03;97072.88;;;12.03;54.37
71915;BME280;60387;49.994;14.660;2023-03-13T04:39:36;97058.03;;;12.01;54.79
71915;BME280;60387;49.994;14.660;2023-03-13T04:42:10;97056.78;;;11.98;54.26
71915;BME280;60387;49.994;14.660;2023-03-13T04:44:44;97053.88;;;12.03;54.40
71915;BME280;60387;49.994;14.660;2023-03-13T04:47:17;97050.81;;;12.05;54.19
71915;BME280;60387;49.994;14.660;2023-03-13T04:49:50;97046.19;;;12.05;54.37
71915;BME280;60387;49.994;14.660;2023-03-13T04:52:23;97030.72;;;12.06;54.08
71915;BME280;60387;49.994;14.660;2023-03-13T04:54:57;97032.94;;;12.04;54.41
71915;BME280;60387;49.994;14.660;2023-03-13T04:57:30;97035.03;;;12.07;54.26
71915;BME280;60387;49.994;14.660;2023-03-13T05:00:05;97030.38;;;12.07;53.84
71915;BME280;60387;49.994;14.660;2023-03-13T05:02:38;97026.38;;;12.05;54.16
71915;BME280;60387;49.994;14.660;2023-03-13T05:05:12;97022.59;;;12.06;53.71
71915;BME280;60387;49.994;14.660;2023-03-13T05:07:45;97018.91;;;12.02;53.98
71915;BME280;60387;49.994;14.660;2023-03-13T05:10:18;97024.50;;;12.05;53.56
71915;BME280;60387;49.994;14.660;2023-03-13T05:12:52;97030.22;;;12.04;53.68
71915;BME280;60387;49.994;14.660;2023-03-13T05:15:25;97028.19;;;12.01;54.09
71915;BME280;60387;49.994;14.660;2023-03-13T05:17:58;97015.44;;;11.93;53.74
71915;BME280;60387;49.994;14.660;2023-03-13T05:20:43;97010.31;;;12.00;53.88
71915;BME280;60387;49.994;14.660;2023-03-13T05:23:17;97012.69;;;12.01;53.77
71915;BME280;60387;49.994;14.660;2023-03-13T05:25:50;97012.69;;;12.01;54.20
71915;BME280;60387;49.994;14.660;2023-03-13T05:28:23;97013.50;;;12.02;53.50
71915;BME280;60387;49.994;14.660;2023-03-13T05:30:57;97008.72;;;11.99;53.60
71915;BME280;60387;49.994;14.660;2023-03-13T05:33:30;97012.56;;;11.98;53.56
71915;BME280;60387;49.994;14.660;2023-03-13T05:36:03;97002.94;;;12.00;53.67
71915;BME280;60387;49.994;14.660;2023-03-13T05:38:37;96984.00;;;11.92;53.57
71915;BME280;60387;49.994;14.660;2023-03-13T05:41:10;96993.03;;;12.04;53.91
71915;BME280;60387;49.994;14.660;2023-03-13T05:43:43;96986.03;;;12.03;53.53
71915;BME280;60387;49.994;14.660;2023-03-13T05:46:16;96985.69;;;12.05;53.32
71915;BME280;60387;49.994;14.660;2023-03-13T05:48:50;96972.78;;;12.02;53.83
71915;BME280;60387;49.994;14.660;2023-03-13T05:51:23;96974.97;;;12.08;53.29
71915;BME280;60387;49.994;14.660;2023-03-13T05:53:56;96976.91;;;12.08;53.44
71915;BME280;60387;49.994;14.660;2023-03-13T05:56:30;96965.69;;;12.09;53.28
71915;BME280;60387;49.994;14.660;2023-03-13T05:59:06;96955.63;;;12.10;53.30
71915;BME280;60387;49.994;14.660;2023-03-13T06:01:39;96953.84;;;12.14;53.41
71915;BME280;60387;49.994;14.660;2023-03-13T06:04:12;96955.47;;;12.15;53.37
71915;BME280;60387;49.994;14.660;2023-03-13T06:06:46;96956.84;;;12.21;53.30
71915;BME280;60387;49.994;14.660;2023-03-13T06:09:19;96952.06;;;12.18;53.27
71915;BME280;60387;49.994;14.660;2023-03-13T06:11:53;96953.00;;;12.22;53.28
71915;BME280;60387;49.994;14.660;2023-03-13T06:14:26;96952.34;;;12.25;52.85
71915;BME280;60387;49.994;14.660;2023-03-13T06:17:00;96941.22;;;12.18;52.54
71915;BME280;60387;49.994;14.660;2023-03-13T06:19:33;96946.91;;;12.25;52.78
71915;BME280;60387;49.994;14.660;2023-03-13T06:22:06;96936.84;;;12.25;52.72
71915;BME280;60387;49.994;14.660;2023-03-13T06:24:40;96936.06;;;12.25;52.54
71915;BME280;60387;49.994;14.660;2023-03-13T06:27:13;96941.13;;;12.26;52.90
71915;BME280;60387;49.994;14.660;2023-03-13T06:29:46;96938.28;;;12.23;52.66
71915;BME280;60387;49.994;14.660;2023-03-13T06:32:19;96932.66;;;12.28;52.50
71915;BME280;60387;49.994;14.660;2023-03-13T06:34:53;96944.00;;;12.30;52.62
71915;BME280;60387;49.994;14.660;2023-03-13T06:37:26;96943.22;;;12.29;52.67
71915;BME280;60387;49.994;14.660;2023-03-13T06:39:59;96935.06;;;12.29;52.79
71915;BME280;60387;49.994;14.660;2023-03-13T06:42:32;96937.91;;;12.33;52.56
71915;BME280;60387;49.994;14.660;2023-03-13T06:45:06;96938.06;;;12.36;52.48
71915;BME280;60387;49.994;14.660;2023-03-13T06:47:40;96930.38;;;12.38;52.73
71915;BME280;60387;49.994;14.660;2023-03-13T06:50:13;96937.38;;;12.39;52.65
71915;BME280;60387;49.994;14.660;2023-03-13T06:52:47;96934.97;;;12.38;52.47
71915;BME280;60387;49.994;14.660;2023-03-13T06:55:20;96911.69;;;12.37;52.91
71915;BME280;60387;49.994;14.660;2023-03-13T06:57:53;96908.28;;;12.40;52.33
71915;BME280;60387;49.994;14.660;2023-03-13T07:00:26;96908.56;;;12.47;52.89
71915;BME280;60387;49.994;14.660;2023-03-13T07:03:00;96916.06;;;12.50;52.60
71915;BME280;60387;49.994;14.660;2023-03-13T07:05:33;96914.13;;;12.50;52.61
71915;BME280;60387;49.994;14.660;2023-03-13T07:08:06;96911.53;;;12.54;52.19
71915;BME280;60387;49.994;14.660;2023-03-13T07:10:41;96908.75;;;12.62;52.62
71915;BME280;60387;49.994;14.660;2023-03-13T07:13:15;96905.69;;;12.64;52.39
71915;BME280;60387;49.994;14.660;2023-03-13T07:15:48;96899.47;;;12.63;52.50
71915;BME280;60387;49.994;14.660;2023-03-13T07:18:22;96909.09;;;12.73;52.36
71915;BME280;60387;49.994;14.660;2023-03-13T07:20:57;96898.84;;;12.78;51.90
71915;BME280;60387;49.994;14.660;2023-03-13T07:23:32;96908.38;;;12.84;51.78
71915;BME280;60387;49.994;14.660;2023-03-13T07:26:11;96906.22;;;12.89;51.77
71915;BME280;60387;49.994;14.660;2023-03-13T07:28:45;96894.50;;;12.97;51.62
71915;BME280;60387;49.994;14.660;2023-03-13T07:31:20;96900.63;;;13.06;51.80
71915;BME280;60387;49.994;14.660;2023-03-13T07:33:53;96898.16;;;13.13;51.38
71915;BME280;60387;49.994;14.660;2023-03-13T07:36:27;96896.72;;;13.16;51.34
71915;BME280;60387;49.994;14.660;2023-03-13T07:39:00;96884.00;;;13.20;51.35
71915;BME280;60387;49.994;14.660;2023-03-13T07:41:33;96893.53;;;13.26;51.04
71915;BME280;60387;49.994;14.660;2023-03-13T07:44:07;96880.06;;;13.29;50.95
71915;BME280;60387;49.994;14.660;2023-03-13T07:46:40;96884.94;;;13.36;50.97
71915;BME280;60387;49.994;14.660;2023-03-13T07:49:14;96884.16;;;13.35;51.21
71915;BME280;60387;49.994;14.660;2023-03-13T07:51:47;96882.34;;;13.39;50.92
71915;BME280;60387;49.994;14.660;2023-03-13T07:54:20;96877.81;;;13.43;51.04
71915;BME280;60387;49.994;14.660;2023-03-13T07:56:56;96879.63;;;13.51;51.22
71915;BME280;60387;49.994;14.660;2023-03-13T07:59:30;96874.84;;;13.48;52.00
71915;BME280;60387;49.994;14.660;2023-03-13T08:02:03;96874.41;;;13.46;51.56
71915;BME280;60387;49.994;14.660;2023-03-13T08:04:36;96865.44;;;13.46;51.89
71915;BME280;60387;49.994;14.660;2023-03-13T08:07:10;96855.25;;;13.43;51.74
71915;BME280;60387;49.994;14.660;2023-03-13T08:09:43;96846.31;;;13.42;52.52
71915;BME280;60387;49.994;14.660;2023-03-13T08:12:17;96827.72;;;13.44;52.17
71915;BME280;60387;49.994;14.660;2023-03-13T08:14:50;96837.56;;;13.49;52.60
71915;BME280;60387;49.994;14.660;2023-03-13T08:17:23;96820.81;;;13.47;53.23
71915;BME280;60387;49.994;14.660;2023-03-13T08:19:56;96812.28;;;13.48;52.85
71915;BME280;60387;49.994;14.660;2023-03-13T08:22:30;96818.63;;;13.52;53.04
71915;BME280;60387;49.994;14.660;2023-03-13T08:25:03;96814.91;;;13.57;52.59
71915;BME280;60387;49.994;14.660;2023-03-13T08:27:36;96825.56;;;13.50;53.27
71915;BME280;60387;49.994;14.660;2023-03-13T08:30:10;96820.56;;;13.64;53.14
71915;BME280;60387;49.994;14.660;2023-03-13T08:32:44;96815.09;;;13.76;52.70
71915;BME280;60387;49.994;14.660;2023-03-13T08:35:17;96814.06;;;13.80;52.78
71915;BME280;60387;49.994;14.660;2023-03-13T08:37:51;96817.22;;;13.94;52.39
71915;BME280;60387;49.994;14.660;2023-03-13T08:40:24;96814.66;;;14.01;52.31
71915;BME280;60387;49.994;14.660;2023-03-13T08:42:57;96801.53;;;14.03;52.22
71915;BME280;60387;49.994;14.660;2023-03-13T08:45:30;96797.66;;;14.04;51.95
71915;BME280;60387;49.994;14.660;2023-03-13T08:48:04;96785.97;;;14.04;51.78
71915;BME280;60387;49.994;14.660;2023-03-13T08:50:37;96781.31;;;14.04;51.78
71915;BME280;60387;49.994;14.660;2023-03-13T08:53:10;96772.72;;;14.02;51.37
71915;BME280;60387;49.994;14.660;2023-03-13T08:55:51;96784.38;;;14.03;51.63
71915;BME280;60387;49.994;14.660;2023-03-13T08:58:25;96790.63;;;14.03;51.57
71915;BME280;60387;49.994;14.660;2023-03-13T09:01:03;96786.88;;;14.08;51.84
71915;BME280;60387;49.994;14.660;2023-03-13T09:03:37;96786.97;;;14.11;51.35
71915;BME280;60387;49.994;14.660;2023-03-13T09:06:11;96789.00;;;14.14;51.86
71915;BME280;60387;49.994;14.660;2023-03-13T09:08:45;96776.28;;;14.18;51.46
71915;BME280;60387;49.994;14.660;2023-03-13T09:11:19;96747.69;;;14.24;51.09
71915;BME280;60387;49.994;14.660;2023-03-13T09:13:54;96760.78;;;14.34;50.98
71915;BME280;60387;49.994;14.660;2023-03-13T09:16:29;96773.47;;;14.42;50.83
71915;BME280;60387;49.994;14.660;2023-03-13T09:19:03;96770.94;;;14.49;50.48
71915;BME280;60387;49.994;14.660;2023-03-13T09:21:36;96760.56;;;14.55;50.15
71915;BME280;60387;49.994;14.660;2023-03-13T09:24:09;96761.91;;;14.61;50.08
71915;BME280;60387;49.994;14.660;2023-03-13T09:26:43;96759.28;;;14.64;50.22
71915;BME280;60387;49.994;14.660;2023-03-13T09:29:16;96763.34;;;14.70;50.01
71915;BME280;60387;49.994;14.660;2023-03-13T09:31:52;96758.75;;;14.74;49.70
71915;BME280;60387;49.994;14.660;2023-03-13T09:34:25;96775.28;;;14.81;49.50
71915;BME280;60387;49.994;14.660;2023-03-13T09:36:58;96769.56;;;14.86;49.83
71915;BME280;60387;49.994;14.660;2023-03-13T09:39:35;96780.56;;;14.90;49.39
71915;BME280;60387;49.994;14.660;2023-03-13T09:42:17;96775.63;;;14.95;49.76
71915;BME280;60387;49.994;14.660;2023-03-13T09:44:59;96780.84;;;15.00;49.18
71915;BME280;60387;49.994;14.660;2023-03-13T09:47:45;96778.81;;;14.97;49.20
71915;BME280;60387;49.994;14.660;2023-03-13T09:50:24;96777.69;;;14.98;49.39
71915;BME280;60387;49.994;14.660;2023-03-13T09:53:14;96769.94;;;15.00;49.08
71915;BME280;60387;49.994;14.660;2023-03-13T09:55:47;96775.91;;;15.06;49.20
71915;BME280;60387;49.994;14.660;2023-03-13T09:58:23;96768.25;;;15.11;49.31
71915;BME280;60387;49.994;14.660;2023-03-13T10:01:02;96765.00;;;15.21;49.13
71915;BME280;60387;49.994;14.660;2023-03-13T10:03:39;96764.56;;;15.35;48.81
71915;BME280;60387;49.994;14.660;2023-03-13T10:06:18;96763.22;;;15.44;48.62
71915;BME280;60387;49.994;14.660;2023-03-13T10:08:51;96757.22;;;15.54;48.05
71915;BME280;60387;49.994;14.660;2023-03-13T10:12:02;96770.69;;;15.63;48.01
71915;BME280;60387;49.994;14.660;2023-03-13T10:19:55;96764.97;;;15.87;47.70
71915;BME280;60387;49.994;14.660;2023-03-13T10:22:30;96756.47;;;15.92;48.15
71915;BME280;60387;49.994;14.660;2023-03-13T10:25:16;96735.19;;;16.01;47.36
71915;BME280;60387;49.994;14.660;2023-03-13T10:27:51;96731.84;;;16.07;47.42
71915;BME280;60387;49.994;14.660;2023-03-13T10:30:31;96743.41;;;16.20;47.44
71915;BME280;60387;49.994;14.660;2023-03-13T10:35:42;96734.34;;;16.53;47.25
71915;BME280;60387;49.994;14.660;2023-03-13T10:38:20;96743.25;;;16.73;47.34
71915;BME280;60387;49.994;14.660;2023-03-13T10:40:58;96720.69;;;16.76;46.52
71915;BME280;60387;49.994;14.660;2023-03-13T10:43:32;96727.06;;;16.83;46.38
71915;BME280;60387;49.994;14.660;2023-03-13T10:46:07;96710.41;;;16.92;46.73
71915;BME280;60387;49.994;14.660;2023-03-13T10:48:40;96718.66;;;16.95;46.88
71915;BME280;60387;49.994;14.660;2023-03-13T10:51:21;96725.94;;;17.10;46.44
71915;BME280;60387;49.994;14.660;2023-03-13T10:53:55;96734.72;;;17.23;46.55
71915;BME280;60387;49.994;14.660;2023-03-13T10:56:29;96728.97;;;17.28;46.33
71915;BME280;60387;49.994;14.660;2023-03-13T10:59:02;96725.63;;;17.38;46.46
71915;BME280;60387;49.994;14.660;2023-03-13T11:01:51;96724.97;;;17.48;46.27
71915;BME280;60387;49.994;14.660;2023-03-13T11:04:33;96722.75;;;17.57;46.11
71915;BME280;60387;49.994;14.660;2023-03-13T11:07:16;96721.28;;;17.63;46.33
71915;BME280;60387;49.994;14.660;2023-03-13T11:09:58;96712.72;;;17.68;45.31
71915;BME280;60387;49.994;14.660;2023-03-13T11:12:34;96693.91;;;17.63;45.57
71915;BME280;60387;49.994;14.660;2023-03-13T11:15:13;96721.00;;;17.71;45.89
71915;BME280;60387;49.994;14.660;2023-03-13T11:17:57;96716.75;;;17.74;45.50
71915;BME280;60387;49.994;14.660;2023-03-13T11:20:44;96698.72;;;17.73;45.78
71915;BME280;60387;49.994;14.660;2023-03-13T11:23:28;96701.47;;;17.73;45.53
71915;BME280;60387;49.994;14.660;2023-03-13T11:29:05;96701.63;;;17.83;45.54
71915;BME280;60387;49.994;14.660;2023-03-13T11:31:49;96690.31;;;17.88;45.71
71915;BME280;60387;49.994;14.660;2023-03-13T11:34:57;96686.53;;;18.00;45.53
71915;BME280;60387;49.994;14.660;2023-03-13T11:37:35;96685.13;;;18.13;46.02
71915;BME280;60387;49.994;14.660;2023-03-13T11:40:21;96688.53;;;18.32;45.50
71915;BME280;60387;49.994;14.660;2023-03-13T11:43:34;96678.94;;;18.52;45.03
71915;BME280;60387;49.994;14.660;2023-03-13T11:49:08;96674.16;;;18.89;45.01
71915;BME280;60387;49.994;14.660;2023-03-13T11:52:11;96666.81;;;19.00;44.65
71915;BME280;60387;49.994;14.660;2023-03-13T11:57:54;96659.50;;;19.18;44.04
71915;BME280;60387;49.994;14.660;2023-03-13T12:00:30;96653.28;;;19.25;44.53
71915;BME280;60387;49.994;14.660;2023-03-13T12:03:15;96656.84;;;19.29;44.45
71915;BME280;60387;49.994;14.660;2023-03-13T12:05:55;96654.06;;;19.25;44.12
71915;BME280;60387;49.994;14.660;2023-03-13T12:08:40;96660.38;;;19.29;44.24
71915;BME280;60387;49.994;14.660;2023-03-13T12:11:25;96648.56;;;19.25;44.36
71915;BME280;60387;49.994;14.660;2023-03-13T12:14:08;96652.53;;;19.28;44.53
71915;BME280;60387;49.994;14.660;2023-03-13T12:16:48;96668.22;;;19.27;44.54
71915;BME280;60387;49.994;14.660;2023-03-13T12:19:44;96677.66;;;19.33;44.49
71915;BME280;60387;49.994;14.660;2023-03-13T12:22:41;96695.34;;;19.36;44.51
71915;BME280;60387;49.994;14.660;2023-03-13T12:25:29;96672.22;;;19.40;44.56
71915;BME280;60387;49.994;14.660;2023-03-13T12:31:33;96662.44;;;19.43;44.32
71915;BME280;60387;49.994;14.660;2023-03-13T12:40:37;96662.91;;;19.59;44.53
71915;BME280;60387;49.994;14.660;2023-03-13T12:43:18;96666.09;;;19.64;44.60
71915;BME280;60387;49.994;14.660;2023-03-13T12:51:29;96654.34;;;19.74;44.60
71915;BME280;60387;49.994;14.660;2023-03-13T13:00:15;96648.41;;;19.62;43.48
71915;BME280;60387;49.994;14.660;2023-03-13T13:08:48;96644.78;;;19.44;43.95
71915;BME280;60387;49.994;14.660;2023-03-13T13:38:40;96649.81;;;18.81;45.09
71915;BME280;60387;49.994;14.660;2023-03-13T13:43:48;96638.38;;;18.72;45.06
71915;BME280;60387;49.994;14.660;2023-03-13T13:46:25;96644.19;;;18.67;45.32
71915;BME280;60387;49.994;14.660;2023-03-13T13:51:42;96643.72;;;18.58;45.31
71915;BME280;60387;49.994;14.660;2023-03-13T13:57:18;96644.50;;;18.58;45.71
71915;BME280;60387;49.994;14.660;2023-03-13T14:02:36;96641.31;;;18.53;45.64
71915;BME280;60387;49.994;14.660;2023-03-13T14:05:25;96637.00;;;18.52;45.93
71915;BME280;60387;49.994;14.660;2023-03-13T14:08:29;96629.94;;;18.51;45.78
71915;BME280;60387;49.994;14.660;2023-03-13T14:11:35;96635.44;;;18.54;45.69
71915;BME280;60387;49.994;14.660;2023-03-13T14:16:55;96611.16;;;18.56;45.98
71915;BME280;60387;49.994;14.660;2023-03-13T14:19:29;96594.56;;;18.39;46.05
71915;BME280;60387;49.994;14.660;2023-03-13T14:22:08;96601.72;;;18.50;45.89
71915;BME280;60387;49.994;14.660;2023-03-13T14:24:55;96611.13;;;18.53;46.14
71915;BME280;60387;49.994;14.660;2023-03-13T14:27:29;96612.75;;;18.54;46.07
71915;BME280;60387;49.994;14.660;2023-03-13T14:30:03;96603.34;;;18.55;46.05
71915;BME280;60387;49.994;14.660;2023-03-13T14:32:37;96603.75;;;18.57;45.90
71915;BME280;60387;49.994;14.660;2023-03-13T14:35:15;96596.69;;;18.56;46.01
71915;BME280;60387;49.994;14.660;2023-03-13T14:37:51;96595.53;;;18.60;46.16
71915;BME280;60387;49.994;14.660;2023-03-13T14:40:29;96588.53;;;18.63;46.02
71915;BME280;60387;49.994;14.660;2023-03-13T14:43:03;96568.16;;;18.64;45.88
71915;BME280;60387;49.994;14.660;2023-03-13T14:45:49;96565.41;;;18.64;45.97
71915;BME280;60387;49.994;14.660;2023-03-13T14:48:31;96559.53;;;18.69;45.82
71915;BME280;60387;49.994;14.660;2023-03-13T14:51:15;96543.03;;;18.58;45.83
71915;BME280;60387;49.994;14.660;2023-03-13T14:54:00;96556.84;;;18.76;46.16
71915;BME280;60387;49.994;14.660;2023-03-13T14:56:36;96563.16;;;18.80;45.96
71915;BME280;60387;49.994;14.660;2023-03-13T14:59:23;96569.09;;;18.85;45.53
71915;BME280;60387;49.994;14.660;2023-03-13T15:02:23;96567.91;;;18.86;45.57
71915;BME280;60387;49.994;14.660;2023-03-13T15:04:57;96571.44;;;18.90;45.52
71915;BME280;60387;49.994;14.660;2023-03-13T15:07:49;96555.00;;;18.94;45.71